sensor_id;sensor_type;location;lat;lon;timestamp;temperature;humidity
30381;DHT22;17169;50.966;11.038;2024-01-07T00:00:15;2.70;99.90
30381;DHT22;17169;50.966;11.038;2024-01-07T00:03:18;2.70;99.90
30381;DHT22;17169;50.966;11.038;2024-01-07T00:06:20;2.70;99.90
30381;DHT22;17169;50.966;11.038;2024-01-07T00:09:22;2.70;99.90
30381;DHT22;17169;50.966;11.038;2024-01-07T00:12:25;2.70;99.90
30381;DHT22;17169;50.966;11.038;2024-01-07T00:15:28;2.70;99.90
30381;DHT22;17169;50.966;11.038;2024-01-07T00:18:31;2.60;99.90
30381;DHT22;17169;50.966;11.038;2024-01-07T00:21:34;2.60;99.90
30381;DHT22;17169;50.966;11.038;2024-01-07T00:24:36;2.60;99.90
30381;DHT22;17169;50.966;11.038;2024-01-07T00:27:39;2.50;99.90
30381;DHT22;17169;50.966;11.038;2024-01-07T00:30:42;2.50;99.90
30381;DHT22;17169;50.966;11.038;2024-01-07T00:33:45;2.50;99.90
30381;DHT22;17169;50.966;11.038;2024-01-07T00:36:47;2.50;99.90
30381;DHT22;17169;50.966;11.038;2024-01-07T00:39:50;2.40;99.90
30381;DHT22;17169;50.966;11.038;2024-01-07T00:42:52;2.40;99.90
30381;DHT22;17169;50.966;11.038;2024-01-07T00:45:56;2.30;99.90
30381;DHT22;17169;50.966;11.038;2024-01-07T00:48:58;2.30;99.90
30381;DHT22;17169;50.966;11.038;2024-01-07T00:52:01;2.20;99.90
30381;DHT22;17169;50.966;11.038;2024-01-07T00:55:04;2.20;99.90
30381;DHT22;17169;50.966;11.038;2024-01-07T00:58:07;2.10;99.90
30381;DHT22;17169;50.966;11.038;2024-01-07T01:01:11;2.10;99.90
30381;DHT22;17169;50.966;11.038;2024-01-07T01:04:13;2.00;99.90
30381;DHT22;17169;50.966;11.038;2024-01-07T01:07:16;2.00;99.90
30381;DHT22;17169;50.966;11.038;2024-01-07T01:10:19;2.00;99.90
30381;DHT22;17169;50.966;11.038;2024-01-07T01:13:21;2.00;99.90
30381;DHT22;17169;50.966;11.038;2024-01-07T01:16:25;2.00;99.90
30381;DHT22;17169;50.966;11.038;2024-01-07T01:19:27;2.00;99.90
30381;DHT22;17169;50.966;11.038;2024-01-07T01:22:29;1.90;99.90
30381;DHT22;17169;50.966;11.038;2024-01-07T01:25:32;1.90;99.90
30381;DHT22;17169;50.966;11.038;2024-01-07T01:28:34;1.90;99.90
30381;DHT22;17169;50.966;11.038;2024-01-07T01:31:38;2.00;99.90
30381;DHT22;17169;50.966;11.038;2024-01-07T01:34:40;1.90;99.90
30381;DHT22;17169;50.966;11.038;2024-01-07T01:37:42;1.90;99.90
30381;DHT22;17169;50.966;11.038;2024-01-07T01:40:51;1.90;99.90
30381;DHT22;17169;50.966;11.038;2024-01-07T01:43:57;2.00;99.90
30381;DHT22;17169;50.966;11.038;2024-01-07T01:47:01;2.10;99.90
30381;DHT22;17169;50.966;11.038;2024-01-07T01:50:04;2.10;99.90
30381;DHT22;17169;50.966;11.038;2024-01-07T01:53:07;2.00;99.90
30381;DHT22;17169;50.966;11.038;2024-01-07T01:56:09;2.10;99.90
30381;DHT22;17169;50.966;11.038;2024-01-07T01:59:12;2.10;99.90
30381;DHT22;17169;50.966;11.038;2024-01-07T02:02:16;2.20;99.90
30381;DHT22;17169;50.966;11.038;2024-01-07T02:05:18;2.10;99.90
30381;DHT22;17169;50.966;11.038;2024-01-07T02:08:21;2.00;99.90
30381;DHT22;17169;50.966;11.038;2024-01-07T02:11:23;1.90;99.90
30381;DHT22;17169;50.966;11.038;2024-01-07T02:14:25;1.80;99.90
30381;DHT22;17169;50.966;11.038;2024-01-07T02:17:29;1.70;99.90
30381;DHT22;17169;50.966;11.038;2024-01-07T02:20:32;1.70;99.90
30381;DHT22;17169;50.966;11.038;2024-01-07T02:23:34;1.70;99.90
30381;DHT22;17169;50.966;11.038;2024-01-07T02:26:38;1.70;99.90
30381;DHT22;17169;50.966;11.038;2024-01-07T02:29:40;1.70;99.90
30381;DHT22;17169;50.966;11.038;2024-01-07T02:32:42;1.80;99.90
30381;DHT22;17169;50.966;11.038;2024-01-07T02:35:45;1.90;99.90
30381;DHT22;17169;50.966;11.038;2024-01-07T02:38:47;1.90;99.90
30381;DHT22;17169;50.966;11.038;2024-01-07T02:41:51;1.90;99.90
30381;DHT22;17169;50.966;11.038;2024-01-07T02:44:53;1.90;99.90
30381;DHT22;17169;50.966;11.038;2024-01-07T02:47:55;2.00;99.90
30381;DHT22;17169;50.966;11.038;2024-01-07T02:50:58;2.00;99.90
30381;DHT22;17169;50.966;11.038;2024-01-07T02:54:00;2.00;99.90
30381;DHT22;17169;50.966;11.038;2024-01-07T02:57:04;1.90;99.90
30381;DHT22;17169;50.966;11.038;2024-01-07T03:00:08;1.90;99.90
30381;DHT22;17169;50.966;11.038;2024-01-07T03:03:10;1.90;99.90
30381;DHT22;17169;50.966;11.038;2024-01-07T03:06:12;1.90;99.90
30381;DHT22;17169;50.966;11.038;2024-01-07T03:09:15;1.80;99.90
30381;DHT22;17169;50.966;11.038;2024-01-07T03:12:19;1.80;99.90
30381;DHT22;17169;50.966;11.038;2024-01-07T03:15:21;1.80;99.90
30381;DHT22;17169;50.966;11.038;2024-01-07T03:18:23;1.80;99.90
30381;DHT22;17169;50.966;11.038;2024-01-07T03:21:26;1.80;99.90
30381;DHT22;17169;50.966;11.038;2024-01-07T03:24:28;1.70;99.90
30381;DHT22;17169;50.966;11.038;2024-01-07T03:27:32;1.70;99.90
30381;DHT22;17169;50.966;11.038;2024-01-07T03:30:34;1.70;99.90
30381;DHT22;17169;50.966;11.038;2024-01-07T03:33:37;1.70;99.90
30381;DHT22;17169;50.966;11.038;2024-01-07T03:36:39;1.70;99.90
30381;DHT22;17169;50.966;11.038;2024-01-07T03:39:41;1.70;99.90
30381;DHT22;17169;50.966;11.038;2024-01-07T03:42:45;1.70;99.90
30381;DHT22;17169;50.966;11.038;2024-01-07T03:45:48;1.70;99.90
30381;DHT22;17169;50.966;11.038;2024-01-07T03:48:50;1.70;99.90
30381;DHT22;17169;50.966;11.038;2024-01-07T03:51:53;1.70;99.90
30381;DHT22;17169;50.966;11.038;2024-01-07T03:54:55;1.50;99.90
30381;DHT22;17169;50.966;11.038;2024-01-07T03:57:59;1.50;99.90
30381;DHT22;17169;50.966;11.038;2024-01-07T04:01:01;1.40;99.90
30381;DHT22;17169;50.966;11.038;2024-01-07T04:04:04;1.30;99.90
30381;DHT22;17169;50.966;11.038;2024-01-07T04:07:06;1.30;99.90
30381;DHT22;17169;50.966;11.038;2024-01-07T04:10:09;1.20;99.90
30381;DHT22;17169;50.966;11.038;2024-01-07T04:13:13;1.30;99.90
30381;DHT22;17169;50.966;11.038;2024-01-07T04:16:16;1.20;99.90
30381;DHT22;17169;50.966;11.038;2024-01-07T04:19:19;1.20;99.90
30381;DHT22;17169;50.966;11.038;2024-01-07T04:22:21;1.20;99.90
30381;DHT22;17169;50.966;11.038;2024-01-07T04:25:24;1.20;99.90
30381;DHT22;17169;50.966;11.038;2024-01-07T04:28:28;1.10;99.90
30381;DHT22;17169;50.966;11.038;2024-01-07T04:31:30;1.10;99.90
30381;DHT22;17169;50.966;11.038;2024-01-07T04:34:32;1.20;99.90
30381;DHT22;17169;50.966;11.038;2024-01-07T04:37:35;1.20;99.90
30381;DHT22;17169;50.966;11.038;2024-01-07T04:40:37;1.20;99.90
30381;DHT22;17169;50.966;11.038;2024-01-07T04:43:42;1.20;99.90
30381;DHT22;17169;50.966;11.038;2024-01-07T04:46:44;1.20;99.90
30381;DHT22;17169;50.966;11.038;2024-01-07T04:49:47;1.30;99.90
30381;DHT22;17169;50.966;11.038;2024-01-07T04:52:49;1.30;99.90
30381;DHT22;17169;50.966;11.038;2024-01-07T04:55:52;1.30;99.90
30381;DHT22;17169;50.966;11.038;2024-01-07T04:58:55;1.30;99.90
30381;DHT22;17169;50.966;11.038;2024-01-07T05:01:58;1.30;99.90
30381;DHT22;17169;50.966;11.038;2024-01-07T05:05:00;1.30;99.90
30381;DHT22;17169;50.966;11.038;2024-01-07T05:08:03;1.20;99.90
30381;DHT22;17169;50.966;11.038;2024-01-07T05:11:05;1.20;99.90
30381;DHT22;17169;50.966;11.038;2024-01-07T05:14:10;1.00;99.90
30381;DHT22;17169;50.966;11.038;2024-01-07T05:17:12;0.90;99.90
30381;DHT22;17169;50.966;11.038;2024-01-07T05:20:15;0.80;99.90
30381;DHT22;17169;50.966;11.038;2024-01-07T05:23:18;0.80;99.90
30381;DHT22;17169;50.966;11.038;2024-01-07T05:26:20;0.70;99.90
30381;DHT22;17169;50.966;11.038;2024-01-07T05:29:24;0.60;99.90
30381;DHT22;17169;50.966;11.038;2024-01-07T05:32:27;0.70;99.90
30381;DHT22;17169;50.966;11.038;2024-01-07T05:35:29;0.60;99.90
30381;DHT22;17169;50.966;11.038;2024-01-07T05:38:31;0.60;99.90
30381;DHT22;17169;50.966;11.038;2024-01-07T05:41:36;0.50;99.90
30381;DHT22;17169;50.966;11.038;2024-01-07T05:44:41;0.50;99.90
30381;DHT22;17169;50.966;11.038;2024-01-07T05:47:43;0.50;99.90
30381;DHT22;17169;50.966;11.038;2024-01-07T05:50:45;0.50;99.90
30381;DHT22;17169;50.966;11.038;2024-01-07T05:53:48;0.50;99.90
30381;DHT22;17169;50.966;11.038;2024-01-07T05:56:51;0.50;99.90
30381;DHT22;17169;50.966;11.038;2024-01-07T05:59:55;0.50;99.90
30381;DHT22;17169;50.966;11.038;2024-01-07T06:02:58;0.50;99.90
30381;DHT22;17169;50.966;11.038;2024-01-07T06:06:00;0.40;99.90
30381;DHT22;17169;50.966;11.038;2024-01-07T06:09:02;0.40;99.90
30381;DHT22;17169;50.966;11.038;2024-01-07T06:12:05;0.30;99.90
30381;DHT22;17169;50.966;11.038;2024-01-07T06:15:09;0.30;99.90
30381;DHT22;17169;50.966;11.038;2024-01-07T06:18:12;0.30;99.90
30381;DHT22;17169;50.966;11.038;2024-01-07T06:21:14;0.30;99.90
30381;DHT22;17169;50.966;11.038;2024-01-07T06:24:16;0.30;99.90
30381;DHT22;17169;50.966;11.038;2024-01-07T06:27:19;0.40;99.90
30381;DHT22;17169;50.966;11.038;2024-01-07T06:30:22;0.30;99.90
30381;DHT22;17169;50.966;11.038;2024-01-07T06:33:25;0.30;99.90
30381;DHT22;17169;50.966;11.038;2024-01-07T06:36:28;0.20;99.90
30381;DHT22;17169;50.966;11.038;2024-01-07T06:39:30;0.20;99.90
30381;DHT22;17169;50.966;11.038;2024-01-07T06:42:33;0.20;99.90
30381;DHT22;17169;50.966;11.038;2024-01-07T06:45:37;0.20;99.90
30381;DHT22;17169;50.966;11.038;2024-01-07T06:48:39;0.20;99.90
30381;DHT22;17169;50.966;11.038;2024-01-07T06:51:41;0.10;99.90
30381;DHT22;17169;50.966;11.038;2024-01-07T06:54:44;0.20;99.90
30381;DHT22;17169;50.966;11.038;2024-01-07T06:57:46;0.10;99.90
30381;DHT22;17169;50.966;11.038;2024-01-07T07:00:50;0.00;99.90
30381;DHT22;17169;50.966;11.038;2024-01-07T07:03:52;0.00;99.90
30381;DHT22;17169;50.966;11.038;2024-01-07T07:06:54;0.00;99.90
30381;DHT22;17169;50.966;11.038;2024-01-07T07:09:58;-0.10;99.90
30381;DHT22;17169;50.966;11.038;2024-01-07T07:13:00;-0.10;99.90
30381;DHT22;17169;50.966;11.038;2024-01-07T07:16:05;-0.10;99.90
30381;DHT22;17169;50.966;11.038;2024-01-07T07:19:07;0.00;99.90
30381;DHT22;17169;50.966;11.038;2024-01-07T07:22:10;0.00;99.90
30381;DHT22;17169;50.966;11.038;2024-01-07T07:25:12;0.00;99.90
30381;DHT22;17169;50.966;11.038;2024-01-07T07:28:14;0.00;99.90
30381;DHT22;17169;50.966;11.038;2024-01-07T07:31:19;0.00;99.90
30381;DHT22;17169;50.966;11.038;2024-01-07T07:34:22;0.00;99.90
30381;DHT22;17169;50.966;11.038;2024-01-07T07:37:24;0.00;99.90
30381;DHT22;17169;50.966;11.038;2024-01-07T07:40:27;0.00;99.90
30381;DHT22;17169;50.966;11.038;2024-01-07T07:43:29;0.00;99.90
30381;DHT22;17169;50.966;11.038;2024-01-07T07:46:33;0.00;99.90
30381;DHT22;17169;50.966;11.038;2024-01-07T07:49:35;0.00;99.90
30381;DHT22;17169;50.966;11.038;2024-01-07T07:52:38;0.00;99.90
30381;DHT22;17169;50.966;11.038;2024-01-07T07:55:40;0.00;99.90
30381;DHT22;17169;50.966;11.038;2024-01-07T07:58:42;0.00;99.90
30381;DHT22;17169;50.966;11.038;2024-01-07T08:01:47;-0.10;99.90
30381;DHT22;17169;50.966;11.038;2024-01-07T08:04:50;-0.10;99.90
30381;DHT22;17169;50.966;11.038;2024-01-07T08:07:53;-0.10;99.90
30381;DHT22;17169;50.966;11.038;2024-01-07T08:10:57;-0.20;99.90
30381;DHT22;17169;50.966;11.038;2024-01-07T08:13:59;-0.20;99.90
30381;DHT22;17169;50.966;11.038;2024-01-07T08:17:04;-0.10;99.90
30381;DHT22;17169;50.966;11.038;2024-01-07T08:20:07;-0.10;99.90
30381;DHT22;17169;50.966;11.038;2024-01-07T08:23:09;-0.20;99.90
30381;DHT22;17169;50.966;11.038;2024-01-07T08:26:12;-0.20;99.90
30381;DHT22;17169;50.966;11.038;2024-01-07T08:29:14;-0.20;99.90
30381;DHT22;17169;50.966;11.038;2024-01-07T08:32:18;-0.20;99.90
30381;DHT22;17169;50.966;11.038;2024-01-07T08:35:23;-0.30;99.90
30381;DHT22;17169;50.966;11.038;2024-01-07T08:38:25;-0.30;99.90
30381;DHT22;17169;50.966;11.038;2024-01-07T08:41:28;-0.30;99.90
30381;DHT22;17169;50.966;11.038;2024-01-07T08:44:34;-0.30;99.90
30381;DHT22;17169;50.966;11.038;2024-01-07T08:47:38;-0.30;99.90
30381;DHT22;17169;50.966;11.038;2024-01-07T08:50:41;-0.20;99.90
30381;DHT22;17169;50.966;11.038;2024-01-07T08:53:43;-0.20;99.90
30381;DHT22;17169;50.966;11.038;2024-01-07T08:56:45;-0.20;99.90
30381;DHT22;17169;50.966;11.038;2024-01-07T08:59:48;-0.20;99.90
30381;DHT22;17169;50.966;11.038;2024-01-07T09:02:51;-0.30;99.90
30381;DHT22;17169;50.966;11.038;2024-01-07T09:05:54;-0.20;99.90
30381;DHT22;17169;50.966;11.038;2024-01-07T09:08:56;-0.20;99.90
30381;DHT22;17169;50.966;11.038;2024-01-07T09:11:58;-0.20;99.90
30381;DHT22;17169;50.966;11.038;2024-01-07T09:15:01;-0.20;99.90
30381;DHT22;17169;50.966;11.038;2024-01-07T09:18:05;-0.20;99.90
30381;DHT22;17169;50.966;11.038;2024-01-07T09:21:08;-0.20;99.90
30381;DHT22;17169;50.966;11.038;2024-01-07T09:24:10;-0.20;99.90
30381;DHT22;17169;50.966;11.038;2024-01-07T09:27:13;-0.20;99.90
30381;DHT22;17169;50.966;11.038;2024-01-07T09:30:15;-0.30;99.90
30381;DHT22;17169;50.966;11.038;2024-01-07T09:33:20;-0.30;99.90
30381;DHT22;17169;50.966;11.038;2024-01-07T09:36:24;-0.30;99.90
30381;DHT22;17169;50.966;11.038;2024-01-07T09:39:26;-0.30;99.90
30381;DHT22;17169;50.966;11.038;2024-01-07T09:42:29;-0.20;99.90
30381;DHT22;17169;50.966;11.038;2024-01-07T09:45:32;-0.10;99.90
30381;DHT22;17169;50.966;11.038;2024-01-07T09:48:36;-0.20;99.90
30381;DHT22;17169;50.966;11.038;2024-01-07T09:51:39;-0.10;99.90
30381;DHT22;17169;50.966;11.038;2024-01-07T09:54:42;-0.10;99.90
30381;DHT22;17169;50.966;11.038;2024-01-07T09:57:50;-0.10;99.90
30381;DHT22;17169;50.966;11.038;2024-01-07T10:00:52;-0.10;99.90
30381;DHT22;17169;50.966;11.038;2024-01-07T10:03:56;-0.20;99.90
30381;DHT22;17169;50.966;11.038;2024-01-07T10:06:59;-0.20;99.90
30381;DHT22;17169;50.966;11.038;2024-01-07T10:10:12;-0.30;99.90
30381;DHT22;17169;50.966;11.038;2024-01-07T10:13:14;-0.30;99.90
30381;DHT22;17169;50.966;11.038;2024-01-07T10:16:17;-0.30;99.90
30381;DHT22;17169;50.966;11.038;2024-01-07T10:19:24;-0.30;99.90
30381;DHT22;17169;50.966;11.038;2024-01-07T10:22:27;-0.30;99.90
30381;DHT22;17169;50.966;11.038;2024-01-07T10:25:31;-0.30;99.90
30381;DHT22;17169;50.966;11.038;2024-01-07T10:28:34;-0.30;99.90
30381;DHT22;17169;50.966;11.038;2024-01-07T10:31:38;-0.30;99.90
30381;DHT22;17169;50.966;11.038;2024-01-07T10:34:46;-0.30;99.90
30381;DHT22;17169;50.966;11.038;2024-01-07T10:37:49;-0.30;99.90
30381;DHT22;17169;50.966;11.038;2024-01-07T10:40:52;-0.30;99.90
30381;DHT22;17169;50.966;11.038;2024-01-07T10:43:56;-0.30;99.90
30381;DHT22;17169;50.966;11.038;2024-01-07T10:47:04;-0.30;99.90
30381;DHT22;17169;50.966;11.038;2024-01-07T10:50:11;-0.40;99.90
30381;DHT22;17169;50.966;11.038;2024-01-07T10:53:18;-0.40;99.90
30381;DHT22;17169;50.966;11.038;2024-01-07T10:56:23;-0.40;99.90
30381;DHT22;17169;50.966;11.038;2024-01-07T10:59:26;-0.40;99.90
30381;DHT22;17169;50.966;11.038;2024-01-07T11:02:30;-0.40;99.90
30381;DHT22;17169;50.966;11.038;2024-01-07T11:05:39;-0.40;99.90
30381;DHT22;17169;50.966;11.038;2024-01-07T11:08:46;-0.40;99.90
30381;DHT22;17169;50.966;11.038;2024-01-07T11:11:54;-0.40;99.90
30381;DHT22;17169;50.966;11.038;2024-01-07T11:14:57;-0.40;99.90
30381;DHT22;17169;50.966;11.038;2024-01-07T11:18:00;-0.30;99.90
30381;DHT22;17169;50.966;11.038;2024-01-07T11:21:05;-0.30;99.90
30381;DHT22;17169;50.966;11.038;2024-01-07T11:24:07;-0.20;99.90
30381;DHT22;17169;50.966;11.038;2024-01-07T11:27:09;-0.10;99.90
30381;DHT22;17169;50.966;11.038;2024-01-07T11:30:19;-0.10;99.90
30381;DHT22;17169;50.966;11.038;2024-01-07T11:33:22;-0.20;99.90
30381;DHT22;17169;50.966;11.038;2024-01-07T11:36:36;-0.10;99.90
30381;DHT22;17169;50.966;11.038;2024-01-07T11:39:38;0.00;99.90
30381;DHT22;17169;50.966;11.038;2024-01-07T11:42:40;0.00;99.90
30381;DHT22;17169;50.966;11.038;2024-01-07T11:45:43;0.00;99.90
30381;DHT22;17169;50.966;11.038;2024-01-07T11:48:45;-0.10;99.90
30381;DHT22;17169;50.966;11.038;2024-01-07T11:51:49;-0.10;99.90
30381;DHT22;17169;50.966;11.038;2024-01-07T11:54:52;-0.10;99.90
30381;DHT22;17169;50.966;11.038;2024-01-07T11:57:55;-0.20;99.90
30381;DHT22;17169;50.966;11.038;2024-01-07T12:00:57;-0.20;99.90
30381;DHT22;17169;50.966;11.038;2024-01-07T12:04:00;-0.30;99.90
30381;DHT22;17169;50.966;11.038;2024-01-07T12:07:04;-0.30;99.90
30381;DHT22;17169;50.966;11.038;2024-01-07T12:10:08;-0.40;99.90
30381;DHT22;17169;50.966;11.038;2024-01-07T12:13:12;-0.50;99.90
30381;DHT22;17169;50.966;11.038;2024-01-07T12:16:15;-0.60;99.90
30381;DHT22;17169;50.966;11.038;2024-01-07T12:19:17;-0.50;99.90
30381;DHT22;17169;50.966;11.038;2024-01-07T12:22:22;-0.40;99.90
30381;DHT22;17169;50.966;11.038;2024-01-07T12:25:25;-0.40;99.90
30381;DHT22;17169;50.966;11.038;2024-01-07T12:28:27;-0.30;99.90
30381;DHT22;17169;50.966;11.038;2024-01-07T12:31:30;-0.30;99.90
30381;DHT22;17169;50.966;11.038;2024-01-07T12:34:33;-0.30;99.90
30381;DHT22;17169;50.966;11.038;2024-01-07T12:37:37;-0.30;99.90
30381;DHT22;17169;50.966;11.038;2024-01-07T12:40:39;-0.30;99.90
30381;DHT22;17169;50.966;11.038;2024-01-07T12:43:42;-0.20;99.90
30381;DHT22;17169;50.966;11.038;2024-01-07T12:46:44;-0.20;99.90
30381;DHT22;17169;50.966;11.038;2024-01-07T12:49:49;-0.20;99.90
30381;DHT22;17169;50.966;11.038;2024-01-07T12:52:52;-0.10;99.90
30381;DHT22;17169;50.966;11.038;2024-01-07T12:55:55;-0.10;99.90
30381;DHT22;17169;50.966;11.038;2024-01-07T12:58:57;-0.10;99.90
30381;DHT22;17169;50.966;11.038;2024-01-07T13:01:59;-0.10;99.90
30381;DHT22;17169;50.966;11.038;2024-01-07T13:05:02;0.00;99.90
30381;DHT22;17169;50.966;11.038;2024-01-07T13:08:06;0.00;99.90
30381;DHT22;17169;50.966;11.038;2024-01-07T13:11:09;0.10;99.90
30381;DHT22;17169;50.966;11.038;2024-01-07T13:14:15;0.10;99.90
30381;DHT22;17169;50.966;11.038;2024-01-07T13:17:18;0.10;99.90
30381;DHT22;17169;50.966;11.038;2024-01-07T13:20:20;0.10;99.90
30381;DHT22;17169;50.966;11.038;2024-01-07T13:23:24;0.00;99.90
30381;DHT22;17169;50.966;11.038;2024-01-07T13:26:27;0.00;99.90
30381;DHT22;17169;50.966;11.038;2024-01-07T13:29:29;-0.10;99.90
30381;DHT22;17169;50.966;11.038;2024-01-07T13:32:32;-0.10;99.90
30381;DHT22;17169;50.966;11.038;2024-01-07T13:35:37;0.00;99.90
30381;DHT22;17169;50.966;11.038;2024-01-07T13:38:41;0.00;99.90
30381;DHT22;17169;50.966;11.038;2024-01-07T13:41:43;0.00;99.90
30381;DHT22;17169;50.966;11.038;2024-01-07T13:44:46;0.00;99.90
30381;DHT22;17169;50.966;11.038;2024-01-07T13:47:48;0.10;99.90
30381;DHT22;17169;50.966;11.038;2024-01-07T13:50:51;0.10;99.90
30381;DHT22;17169;50.966;11.038;2024-01-07T13:53:56;0.00;99.90
30381;DHT22;17169;50.966;11.038;2024-01-07T13:56:58;0.10;99.90
30381;DHT22;17169;50.966;11.038;2024-01-07T14:00:01;0.10;99.90
30381;DHT22;17169;50.966;11.038;2024-01-07T14:03:08;0.10;99.90
30381;DHT22;17169;50.966;11.038;2024-01-07T14:06:11;0.10;99.90
30381;DHT22;17169;50.966;11.038;2024-01-07T14:09:15;0.10;99.90
30381;DHT22;17169;50.966;11.038;2024-01-07T14:12:17;0.10;99.90
30381;DHT22;17169;50.966;11.038;2024-01-07T14:15:19;0.10;99.90
30381;DHT22;17169;50.966;11.038;2024-01-07T14:18:22;0.10;99.90
30381;DHT22;17169;50.966;11.038;2024-01-07T14:21:24;0.10;99.90
30381;DHT22;17169;50.966;11.038;2024-01-07T14:24:28;0.10;99.90
30381;DHT22;17169;50.966;11.038;2024-01-07T14:27:30;0.10;99.90
30381;DHT22;17169;50.966;11.038;2024-01-07T14:30:33;0.10;99.90
30381;DHT22;17169;50.966;11.038;2024-01-07T14:33:35;0.10;99.90
30381;DHT22;17169;50.966;11.038;2024-01-07T14:36:40;0.20;99.90
30381;DHT22;17169;50.966;11.038;2024-01-07T14:39:45;0.10;99.90
30381;DHT22;17169;50.966;11.038;2024-01-07T14:42:47;0.20;99.90
30381;DHT22;17169;50.966;11.038;2024-01-07T14:45:50;0.20;99.90
30381;DHT22;17169;50.966;11.038;2024-01-07T14:48:52;0.10;99.90
30381;DHT22;17169;50.966;11.038;2024-01-07T14:51:54;0.10;99.90
30381;DHT22;17169;50.966;11.038;2024-01-07T14:54:58;0.10;99.90
30381;DHT22;17169;50.966;11.038;2024-01-07T14:58:01;0.20;99.90
30381;DHT22;17169;50.966;11.038;2024-01-07T15:01:03;0.20;99.90
30381;DHT22;17169;50.966;11.038;2024-01-07T15:04:05;0.20;99.90
30381;DHT22;17169;50.966;11.038;2024-01-07T15:07:09;0.20;99.90
30381;DHT22;17169;50.966;11.038;2024-01-07T15:10:15;0.20;99.90
30381;DHT22;17169;50.966;11.038;2024-01-07T15:13:18;0.20;99.90
30381;DHT22;17169;50.966;11.038;2024-01-07T15:16:20;0.20;99.90
30381;DHT22;17169;50.966;11.038;2024-01-07T15:19:23;0.30;99.90
30381;DHT22;17169;50.966;11.038;2024-01-07T15:22:25;0.30;99.90
30381;DHT22;17169;50.966;11.038;2024-01-07T15:25:29;0.20;99.90
30381;DHT22;17169;50.966;11.038;2024-01-07T15:28:31;0.20;99.90
30381;DHT22;17169;50.966;11.038;2024-01-07T15:31:35;0.20;99.90
30381;DHT22;17169;50.966;11.038;2024-01-07T15:34:37;0.10;99.90
30381;DHT22;17169;50.966;11.038;2024-01-07T15:37:39;0.20;99.90
30381;DHT22;17169;50.966;11.038;2024-01-07T15:40:43;0.20;99.90
30381;DHT22;17169;50.966;11.038;2024-01-07T15:43:46;0.20;99.90
30381;DHT22;17169;50.966;11.038;2024-01-07T15:46:48;0.30;99.90
30381;DHT22;17169;50.966;11.038;2024-01-07T15:49:51;0.30;99.90
30381;DHT22;17169;50.966;11.038;2024-01-07T15:52:53;0.20;99.90
30381;DHT22;17169;50.966;11.038;2024-01-07T15:55:59;0.30;99.90
30381;DHT22;17169;50.966;11.038;2024-01-07T15:59:02;0.30;99.90
30381;DHT22;17169;50.966;11.038;2024-01-07T16:02:04;0.30;99.90
30381;DHT22;17169;50.966;11.038;2024-01-07T16:05:07;0.40;99.90
30381;DHT22;17169;50.966;11.038;2024-01-07T16:08:09;0.40;99.90
30381;DHT22;17169;50.966;11.038;2024-01-07T16:11:13;0.40;99.90
30381;DHT22;17169;50.966;11.038;2024-01-07T16:14:18;0.30;99.90
30381;DHT22;17169;50.966;11.038;2024-01-07T16:17:25;0.30;99.90
30381;DHT22;17169;50.966;11.038;2024-01-07T16:20:28;0.20;99.90
30381;DHT22;17169;50.966;11.038;2024-01-07T16:23:31;0.20;99.90
30381;DHT22;17169;50.966;11.038;2024-01-07T16:26:35;0.20;99.90
30381;DHT22;17169;50.966;11.038;2024-01-07T16:29:38;0.10;99.90
30381;DHT22;17169;50.966;11.038;2024-01-07T16:32:41;0.10;99.90
30381;DHT22;17169;50.966;11.038;2024-01-07T16:35:45;0.10;99.90
30381;DHT22;17169;50.966;11.038;2024-01-07T16:38:48;0.10;99.90
30381;DHT22;17169;50.966;11.038;2024-01-07T16:41:51;0.10;99.90
30381;DHT22;17169;50.966;11.038;2024-01-07T16:44:56;0.00;99.90
30381;DHT22;17169;50.966;11.038;2024-01-07T16:47:58;0.00;99.90
30381;DHT22;17169;50.966;11.038;2024-01-07T16:51:04;0.00;99.90
30381;DHT22;17169;50.966;11.038;2024-01-07T16:54:06;0.00;99.90
30381;DHT22;17169;50.966;11.038;2024-01-07T16:57:10;0.00;99.90
30381;DHT22;17169;50.966;11.038;2024-01-07T17:00:14;0.00;99.90
30381;DHT22;17169;50.966;11.038;2024-01-07T17:03:18;0.00;99.90
30381;DHT22;17169;50.966;11.038;2024-01-07T17:06:20;0.00;99.90
30381;DHT22;17169;50.966;11.038;2024-01-07T17:09:23;0.00;99.90
30381;DHT22;17169;50.966;11.038;2024-01-07T17:12:27;0.00;99.90
30381;DHT22;17169;50.966;11.038;2024-01-07T17:15:29;0.00;99.90
30381;DHT22;17169;50.966;11.038;2024-01-07T17:18:31;0.00;99.90
30381;DHT22;17169;50.966;11.038;2024-01-07T17:21:34;0.00;99.90
30381;DHT22;17169;50.966;11.038;2024-01-07T17:24:36;0.00;99.90
30381;DHT22;17169;50.966;11.038;2024-01-07T17:27:40;0.10;99.90
30381;DHT22;17169;50.966;11.038;2024-01-07T17:30:42;0.10;99.90
30381;DHT22;17169;50.966;11.038;2024-01-07T17:33:45;0.10;99.90
30381;DHT22;17169;50.966;11.038;2024-01-07T17:36:47;0.10;99.90
30381;DHT22;17169;50.966;11.038;2024-01-07T17:39:50;0.10;99.90
30381;DHT22;17169;50.966;11.038;2024-01-07T17:42:54;0.10;99.90
30381;DHT22;17169;50.966;11.038;2024-01-07T17:45:57;0.10;99.90
30381;DHT22;17169;50.966;11.038;2024-01-07T17:49:02;0.10;99.90
30381;DHT22;17169;50.966;11.038;2024-01-07T17:52:05;0.10;99.90
30381;DHT22;17169;50.966;11.038;2024-01-07T17:55:07;0.10;99.90
30381;DHT22;17169;50.966;11.038;2024-01-07T17:58:12;0.20;99.90
30381;DHT22;17169;50.966;11.038;2024-01-07T18:01:14;0.20;99.90
30381;DHT22;17169;50.966;11.038;2024-01-07T18:04:16;0.20;99.90
30381;DHT22;17169;50.966;11.038;2024-01-07T18:07:19;0.30;99.90
30381;DHT22;17169;50.966;11.038;2024-01-07T18:10:22;0.30;99.90
30381;DHT22;17169;50.966;11.038;2024-01-07T18:13:26;0.30;99.90
30381;DHT22;17169;50.966;11.038;2024-01-07T18:16:28;0.30;99.90
30381;DHT22;17169;50.966;11.038;2024-01-07T18:19:31;0.20;99.90
30381;DHT22;17169;50.966;11.038;2024-01-07T18:22:33;0.30;99.90
30381;DHT22;17169;50.966;11.038;2024-01-07T18:25:37;0.30;99.90
30381;DHT22;17169;50.966;11.038;2024-01-07T18:28:40;0.30;99.90
30381;DHT22;17169;50.966;11.038;2024-01-07T18:31:46;0.30;99.90
30381;DHT22;17169;50.966;11.038;2024-01-07T18:34:48;0.40;99.90
30381;DHT22;17169;50.966;11.038;2024-01-07T18:37:51;0.40;99.90
30381;DHT22;17169;50.966;11.038;2024-01-07T18:40:53;0.40;99.90
30381;DHT22;17169;50.966;11.038;2024-01-07T18:43:57;0.40;99.90
30381;DHT22;17169;50.966;11.038;2024-01-07T18:46:59;0.40;99.90
30381;DHT22;17169;50.966;11.038;2024-01-07T18:50:02;0.40;99.90
30381;DHT22;17169;50.966;11.038;2024-01-07T18:53:04;0.40;99.90
30381;DHT22;17169;50.966;11.038;2024-01-07T18:56:07;0.40;99.90
30381;DHT22;17169;50.966;11.038;2024-01-07T18:59:11;0.40;99.90
30381;DHT22;17169;50.966;11.038;2024-01-07T19:02:14;0.40;99.90
30381;DHT22;17169;50.966;11.038;2024-01-07T19:05:17;0.40;99.90
30381;DHT22;17169;50.966;11.038;2024-01-07T19:08:20;0.40;99.90
30381;DHT22;17169;50.966;11.038;2024-01-07T19:11:22;0.40;99.90